Time;durP1;ratioP1;P1;durP2;ratioP2;P2;SDS_P1;SDS_P2;PMS_P1;PMS_P2;Temp;Humidity;BMP_temperature;BMP_pressure;BME280_temperature;BME280_humidity;BME280_pressure;Samples;Min_cycle;Max_cycle;Signal;HPM_P1;HPM_P2
2022/09/07 00:00:38;;;;;;;4.27;1.30;;;17.60;99.90;;;;;;5130815;28;20162;-45
2022/09/07 00:03:04;;;;;;;1.57;0.97;;;17.60;99.90;;;;;;5130611;27;20550;-45
2022/09/07 00:05:30;;;;;;;2.50;0.93;;;17.60;99.90;;;;;;5130541;27;20194;-43
2022/09/07 00:07:57;;;;;;;1.47;0.80;;;17.50;99.90;;;;;;5129567;28;20190;-45
2022/09/07 00:10:23;;;;;;;1.60;1.00;;;17.50;99.90;;;;;;5130522;27;20261;-42
2022/09/07 00:12:50;;;;;;;1.40;1.03;;;17.50;99.90;;;;;;5130473;27;20209;-44
2022/09/07 00:15:16;;;;;;;4.47;1.10;;;17.50;99.90;;;;;;5130395;27;20231;-43
2022/09/07 00:17:42;;;;;;;5.80;1.47;;;17.50;99.90;;;;;;5129243;28;20562;-42
2022/09/07 00:20:09;;;;;;;1.10;0.90;;;17.50;99.90;;;;;;5130258;27;20174;-43
2022/09/07 00:22:35;;;;;;;3.87;1.00;;;17.50;99.90;;;;;;5130080;27;20202;-42
2022/09/07 00:25:01;;;;;;;8.73;1.10;;;17.50;99.90;;;;;;5130049;27;20226;-44
2022/09/07 00:27:27;;;;;;;3.10;1.20;;;17.50;99.90;;;;;;5115991;28;20251;-44
2022/09/07 00:29:52;;;;;;;2.07;1.13;;;17.50;99.90;;;;;;5116549;28;20186;-40
2022/09/07 00:32:18;;;;;;;1.97;1.03;;;17.50;99.90;;;;;;5116323;28;20555;-44
2022/09/07 00:34:43;;;;;;;2.67;1.07;;;17.50;99.90;;;;;;5116160;28;20619;-42
2022/09/07 00:37:09;;;;;;;3.57;1.23;;;17.60;99.90;;;;;;5116130;28;20272;-44
2022/09/07 00:39:36;;;;;;;4.13;1.27;;;17.60;99.90;;;;;;5116588;28;20170;-41
2022/09/07 00:42:03;;;;;;;4.43;1.07;;;17.60;99.90;;;;;;5116310;28;20246;-43
2022/09/07 00:45:06;;;;;;;7.63;1.37;;;17.60;99.90;;;;;;5114762;28;20623;-43
2022/09/07 00:47:41;;;;;;;3.90;1.43;;;17.60;99.90;;;;;;5116119;28;20178;-42
2022/09/07 00:50:31;;;;;;;2.20;1.00;;;17.60;99.90;;;;;;5116235;28;20246;-43
2022/09/07 00:53:03;;;;;;;3.57;1.20;;;17.60;99.90;;;;;;5115897;28;20193;-43
2022/09/07 00:55:30;;;;;;;2.43;1.00;;;17.60;99.90;;;;;;5116106;28;20209;-43
2022/09/07 00:57:57;;;;;;;1.40;0.83;;;17.60;99.90;;;;;;5116016;28;20166;-43
2022/09/07 01:00:23;;;;;;;2.53;1.00;;;17.60;99.90;;;;;;5116039;28;20186;-43
2022/09/07 01:02:52;;;;;;;2.97;1.30;;;17.60;99.90;;;;;;5115751;28;20509;-42
2022/09/07 01:05:25;;;;;;;3.90;1.27;;;17.70;99.90;;;;;;5114730;28;20232;-42
2022/09/07 01:07:55;;;;;;;1.00;0.83;;;17.70;99.90;;;;;;5116010;28;20245;-41
2022/09/07 01:10:23;;;;;;;2.20;1.00;;;17.70;99.90;;;;;;5114521;28;20638;-40
2022/09/07 01:12:49;;;;;;;1.67;0.90;;;17.70;99.90;;;;;;5115651;28;20228;-45
2022/09/07 01:15:14;;;;;;;3.47;1.17;;;17.70;99.90;;;;;;5115405;28;20209;-41
2022/09/07 01:17:51;;;;;;;2.43;1.10;;;17.70;99.90;;;;;;5115713;28;20257;-42
2022/09/07 01:20:30;;;;;;;1.83;0.97;;;17.80;99.90;;;;;;5115755;28;20182;-42
2022/09/07 01:23:08;;;;;;;0.93;0.77;;;17.70;99.90;;;;;;5115225;27;20612;-42
2022/09/07 01:25:57;;;;;;;1.17;0.80;;;17.70;99.90;;;;;;5115382;28;20300;-41
2022/09/07 01:28:32;;;;;;;1.20;0.77;;;17.80;99.90;;;;;;5115221;28;20654;-40
2022/09/07 01:31:20;;;;;;;3.13;1.37;;;17.80;99.90;;;;;;5115549;28;20161;-42
2022/09/07 01:34:08;;;;;;;1.83;0.90;;;17.80;99.90;;;;;;5114086;28;20188;-41
2022/09/07 01:37:03;;;;;;;2.47;0.90;;;17.80;99.90;;;;;;5115219;28;20678;-42
2022/09/07 01:39:50;;;;;;;2.03;1.10;;;17.80;99.90;;;;;;5106527;28;20198;-42
2022/09/07 01:42:19;;;;;;;3.73;1.00;;;17.80;99.90;;;;;;5115225;27;20171;-42
2022/09/07 01:44:51;;;;;;;2.53;0.90;;;17.80;99.90;;;;;;5114092;28;20534;-42
2022/09/07 01:47:23;;;;;;;1.90;1.00;;;17.80;99.90;;;;;;5115396;28;20170;-42
2022/09/07 01:50:10;;;;;;;6.13;1.20;;;17.80;99.90;;;;;;5114978;28;20175;-41
2022/09/07 01:52:56;;;;;;;2.80;1.10;;;17.80;99.90;;;;;;5114724;28;20261;-42
2022/09/07 01:55:48;;;;;;;1.50;0.80;;;17.80;99.90;;;;;;5114902;28;20552;-42
2022/09/07 01:58:22;;;;;;;2.33;0.90;;;17.80;99.90;;;;;;5114797;28;20167;-42
2022/09/07 02:00:54;;;;;;;3.00;1.10;;;17.80;99.90;;;;;;5113602;28;20634;-41
2022/09/07 02:03:28;;;;;;;1.47;0.90;;;17.80;99.90;;;;;;5114878;28;20166;-41
2022/09/07 02:06:04;;;;;;;4.53;1.20;;;17.80;99.90;;;;;;5114409;28;20242;-42
2022/09/07 02:08:48;;;;;;;2.63;1.07;;;17.80;99.90;;;;;;5113510;28;20169;-41
2022/09/07 02:11:21;;;;;;;0.90;0.83;;;17.80;99.90;;;;;;5114425;28;20166;-42
2022/09/07 02:13:59;;;;;;;3.03;0.77;;;17.80;99.90;;;;;;5114238;28;20185;-41
2022/09/07 02:16:29;;;;;;;1.43;0.90;;;17.80;99.90;;;;;;5114612;28;20193;-41
2022/09/07 02:19:01;;;;;;;1.57;0.90;;;17.80;99.90;;;;;;5114219;28;20170;-41
2022/09/07 02:21:40;;;;;;;3.07;1.10;;;17.80;99.90;;;;;;5114517;28;20220;-42
2022/09/07 02:24:13;;;;;;;2.23;0.90;;;17.70;99.90;;;;;;5112899;28;20280;-43
2022/09/07 02:26:40;;;;;;;2.87;1.00;;;17.70;99.90;;;;;;5114533;28;20290;-42
2022/09/07 02:29:07;;;;;;;2.50;1.13;;;17.70;99.90;;;;;;5112726;28;20252;-43
2022/09/07 02:31:32;;;;;;;4.97;0.97;;;17.60;99.90;;;;;;5113913;28;20217;-42
2022/09/07 02:34:00;;;;;;;2.80;1.20;;;17.60;99.90;;;;;;5113845;28;20202;-40
2022/09/07 02:36:31;;;;;;;3.07;1.00;;;17.60;99.90;;;;;;5113833;28;20380;-43
2022/09/07 02:38:56;;;;;;;1.80;0.80;;;17.50;99.90;;;;;;5114203;28;20166;-42
2022/09/07 02:41:42;;;;;;;2.67;0.90;;;17.50;99.90;;;;;;5112691;28;20209;-41
2022/09/07 02:44:14;;;;;;;2.17;1.10;;;17.50;99.90;;;;;;5114119;28;20169;-43
2022/09/07 02:47:11;;;;;;;4.13;1.00;;;17.40;99.90;;;;;;5114068;28;20174;-43
2022/09/07 02:50:14;;;;;;;1.70;1.10;;;17.40;99.90;;;;;;5113633;28;20170;-43
2022/09/07 02:52:58;;;;;;;3.60;1.10;;;17.40;99.90;;;;;;5112389;28;20666;-42
2022/09/07 02:55:52;;;;;;;3.30;1.20;;;17.30;99.90;;;;;;5113884;28;20247;-43
2022/09/07 02:58:18;;;;;;;1.90;1.33;;;17.30;99.90;;;;;;5113760;28;20612;-42
2022/09/07 03:01:08;;;;;;;2.87;1.13;;;17.30;99.90;;;;;;5113643;28;20185;-40
2022/09/07 03:04:06;;;;;;;2.63;1.20;;;17.20;99.90;;;;;;5112386;28;20174;-42
2022/09/07 03:06:44;;;;;;;2.97;1.17;;;17.20;99.90;;;;;;5113611;28;20190;-42
2022/09/07 03:09:15;;;;;;;3.20;1.37;;;17.10;99.90;;;;;;5114152;28;20508;-41
2022/09/07 03:11:40;;;;;;;6.03;1.60;;;17.10;99.90;;;;;;5113540;28;20165;-42
2022/09/07 03:14:20;;;;;;;5.03;1.60;;;17.00;99.90;;;;;;5113471;28;20296;-41
2022/09/07 03:16:54;;;;;;;3.27;1.63;;;17.00;99.90;;;;;;5114025;28;20174;-42
2022/09/07 03:19:19;;;;;;;2.10;1.50;;;17.00;99.90;;;;;;5112810;28;20227;-41
2022/09/07 03:21:47;;;;;;;1.97;1.37;;;17.00;99.90;;;;;;5113454;28;20588;-40
2022/09/07 03:24:13;;;;;;;4.10;1.57;;;16.90;99.90;;;;;;5112076;28;20340;-41
2022/09/07 03:26:42;;;;;;;1.23;1.10;;;16.90;99.90;;;;;;5113910;28;20177;-43
2022/09/07 03:29:07;;;;;;;4.13;1.60;;;16.90;99.90;;;;;;5113490;28;20192;-43
2022/09/07 03:31:34;;;;;;;2.63;1.40;;;16.90;99.90;;;;;;5113712;28;20182;-41
2022/09/07 03:34:00;;;;;;;3.50;1.57;;;16.80;99.90;;;;;;5113517;28;20573;-42
2022/09/07 03:36:25;;;;;;;2.57;1.37;;;16.80;99.90;;;;;;5113725;28;20208;-44
2022/09/07 03:38:51;;;;;;;2.23;1.20;;;16.70;99.90;;;;;;5113320;28;20179;-43
2022/09/07 03:41:17;;;;;;;3.30;1.40;;;16.70;99.90;;;;;;5113284;28;20178;-41
2022/09/07 03:43:43;;;;;;;2.23;1.17;;;16.70;99.90;;;;;;5095151;28;20221;-42
2022/09/07 03:46:13;;;;;;;2.90;1.30;;;16.60;99.90;;;;;;5112406;28;20198;-42
2022/09/07 03:48:39;;;;;;;3.73;1.60;;;16.70;99.90;;;;;;5114249;28;20640;-41
2022/09/07 03:51:07;;;;;;;1.67;1.20;;;16.60;99.90;;;;;;5113476;28;20182;-43
2022/09/07 03:53:35;;;;;;;4.27;1.33;;;16.60;99.90;;;;;;5113520;28;20540;-41
2022/09/07 03:56:06;;;;;;;4.63;1.77;;;16.50;99.90;;;;;;5113169;28;20206;-42
2022/09/07 03:58:33;;;;;;;2.43;1.30;;;16.50;99.90;;;;;;5113462;28;20170;-42
2022/09/07 04:00:59;;;;;;;3.33;1.70;;;16.50;99.90;;;;;;5114333;28;20692;-41
2022/09/07 04:03:25;;;;;;;4.50;1.70;;;16.40;99.90;;;;;;5117114;28;20178;-44
2022/09/07 04:05:51;;;;;;;7.87;1.90;;;16.40;99.90;;;;;;5115705;28;20213;-40
2022/09/07 04:08:17;;;;;;;2.57;1.60;;;16.40;99.90;;;;;;5117124;28;20255;-42
2022/09/07 04:10:42;;;;;;;1.40;1.30;;;16.30;99.90;;;;;;5116986;28;20193;-42
2022/09/07 04:13:09;;;;;;;4.40;1.50;;;16.40;99.90;;;;;;5117063;28;20214;-41
2022/09/07 04:15:34;;;;;;;3.70;1.60;;;16.30;99.90;;;;;;5116992;28;20217;-41
2022/09/07 04:18:02;;;;;;;2.37;1.40;;;16.30;99.90;;;;;;5116865;28;20182;-42
2022/09/07 04:20:28;;;;;;;6.43;1.57;;;16.30;99.90;;;;;;5115473;28;20186;-41
2022/09/07 04:22:54;;;;;;;17.77;2.47;;;16.20;99.90;;;;;;5116520;28;20179;-42
2022/09/07 04:25:19;;;;;;;5.27;1.63;;;16.30;99.90;;;;;;5116536;28;20245;-43
2022/09/07 04:27:45;;;;;;;4.57;1.97;;;16.30;99.90;;;;;;5116610;27;20175;-42
2022/09/07 04:30:12;;;;;;;5.17;1.73;;;16.30;99.90;;;;;;5117132;28;20277;-43
2022/09/07 04:32:38;;;;;;;2.43;1.33;;;16.20;99.90;;;;;;5116884;28;20175;-44
2022/09/07 04:35:04;;;;;;;2.43;1.70;;;16.20;99.90;;;;;;5116150;28;20244;-42
2022/09/07 04:37:30;;;;;;;2.37;1.60;;;16.20;99.90;;;;;;5116372;28;20178;-43
2022/09/07 04:39:55;;;;;;;2.67;1.40;;;16.20;99.90;;;;;;5116210;28;20170;-41
2022/09/07 04:42:21;;;;;;;5.17;1.80;;;16.20;99.90;;;;;;5117008;27;20171;-42
2022/09/07 04:44:50;;;;;;;2.87;1.80;;;16.20;99.90;;;;;;5116099;27;20705;-43
2022/09/07 04:47:16;;;;;;;2.90;2.00;;;16.20;99.90;;;;;;5116167;28;20186;-41
2022/09/07 04:49:42;;;;;;;6.27;1.93;;;16.10;99.90;;;;;;5116135;28;20197;-41
2022/09/07 04:52:07;;;;;;;3.80;1.60;;;16.20;99.90;;;;;;5116372;28;20261;-42
2022/09/07 04:54:33;;;;;;;2.90;1.57;;;16.10;99.90;;;;;;5115890;28;20216;-42
2022/09/07 04:56:59;;;;;;;4.93;2.13;;;16.10;99.90;;;;;;5116153;27;20171;-43
2022/09/07 04:59:24;;;;;;;2.63;1.90;;;16.20;99.90;;;;;;5115777;28;20182;-44
2022/09/07 05:01:50;;;;;;;5.70;2.10;;;16.10;99.90;;;;;;5114531;28;20178;-42
2022/09/07 05:04:15;;;;;;;2.57;1.83;;;16.10;99.90;;;;;;5115808;28;20170;-44
2022/09/07 05:06:41;;;;;;;5.30;1.90;;;16.10;99.90;;;;;;5115910;28;20193;-42
2022/09/07 05:09:07;;;;;;;4.57;2.30;;;16.10;99.90;;;;;;5097622;28;20182;-42
2022/09/07 05:11:32;;;;;;;11.23;2.57;;;16.10;99.90;;;;;;5115633;28;20189;-42
2022/09/07 05:14:00;;;;;;;6.17;2.67;;;16.10;99.90;;;;;;5115537;28;20182;-43
2022/09/07 05:16:26;;;;;;;8.60;2.13;;;16.20;99.90;;;;;;5115383;28;20234;-42
2022/09/07 05:18:57;;;;;;;6.00;2.00;;;16.10;99.90;;;;;;5114081;28;20182;-42
2022/09/07 05:21:25;;;;;;;7.57;2.30;;;16.20;99.90;;;;;;5115786;28;20523;-44
2022/09/07 05:23:52;;;;;;;5.17;2.00;;;16.20;99.90;;;;;;5114021;28;20186;-42
2022/09/07 05:26:20;;;;;;;5.00;2.13;;;16.20;99.90;;;;;;5115615;27;20206;-43
2022/09/07 05:28:48;;;;;;;5.83;2.57;;;16.10;99.90;;;;;;5115553;28;20178;-42
2022/09/07 05:31:18;;;;;;;4.60;1.87;;;16.20;99.90;;;;;;5114346;28;20547;-42
2022/09/07 05:33:56;;;;;;;3.23;1.93;;;16.30;99.90;;;;;;5115372;28;20182;-43
2022/09/07 05:36:25;;;;;;;2.17;1.93;;;16.30;99.90;;;;;;5114426;28;20281;-41
2022/09/07 05:38:54;;;;;;;2.40;1.90;;;16.30;99.90;;;;;;5115714;28;20171;-44
2022/09/07 05:41:23;;;;;;;3.07;1.97;;;16.40;99.90;;;;;;5115665;28;20262;-43
2022/09/07 05:43:49;;;;;;;2.27;1.80;;;16.40;99.90;;;;;;5114569;28;20193;-42
2022/09/07 05:46:17;;;;;;;3.63;1.77;;;16.40;99.90;;;;;;5115599;28;20186;-42
2022/09/07 05:48:43;;;;;;;3.33;1.97;;;16.50;99.90;;;;;;5114182;28;20352;-42
2022/09/07 05:51:10;;;;;;;2.47;1.93;;;16.50;99.90;;;;;;5115145;28;20170;-42
2022/09/07 05:53:40;;;;;;;4.40;1.90;;;16.60;99.90;;;;;;5115394;28;20275;-43
2022/09/07 05:56:06;;;;;;;2.43;1.70;;;16.60;99.90;;;;;;5114725;28;20271;-42
2022/09/07 05:58:34;;;;;;;4.30;1.80;;;16.60;99.90;;;;;;5115170;28;20220;-42
2022/09/07 06:01:11;;;;;;;3.23;2.10;;;16.60;99.90;;;;;;5114713;28;20751;-41
2022/09/07 06:03:39;;;;;;;7.63;2.30;;;16.60;99.90;;;;;;5115626;28;20150;-43
2022/09/07 06:06:08;;;;;;;8.07;2.47;;;16.70;99.90;;;;;;5114922;28;20198;-43
2022/09/07 06:08:36;;;;;;;2.37;1.77;;;16.70;99.90;;;;;;5115112;28;20281;-42
2022/09/07 06:11:06;;;;;;;4.83;1.93;;;16.80;99.90;;;;;;5115222;27;20193;-43
2022/09/07 06:13:32;;;;;;;1.70;1.33;;;16.90;99.90;;;;;;5115454;28;20177;-39
2022/09/07 06:16:06;;;;;;;3.67;1.50;;;17.00;99.90;;;;;;5115122;28;20691;-42
2022/09/07 06:18:33;;;;;;;3.47;1.60;;;17.10;99.90;;;;;;5115451;28;20185;-43
2022/09/07 06:21:07;;;;;;;4.63;1.60;;;17.20;99.90;;;;;;5115172;28;20174;-41
2022/09/07 06:23:35;;;;;;;2.40;1.53;;;17.20;99.90;;;;;;5113476;28;20262;-42
2022/09/07 06:26:01;;;;;;;2.67;1.30;;;17.30;99.90;;;;;;5113617;28;20216;-42
2022/09/07 06:28:32;;;;;;;4.10;1.47;;;17.30;99.90;;;;;;5114689;28;20280;-43
2022/09/07 06:30:59;;;;;;;4.03;1.53;;;17.30;99.90;;;;;;5115143;28;20178;-43
2022/09/07 06:33:25;;;;;;;8.93;1.43;;;17.40;99.90;;;;;;5115286;28;20181;-43
2022/09/07 06:35:58;;;;;;;4.47;2.13;;;17.40;99.90;;;;;;5114632;28;20209;-41
2022/09/07 06:38:27;;;;;;;12.63;2.83;;;17.40;99.90;;;;;;5113844;28;20265;-43
2022/09/07 06:40:53;;;;;;;3.27;2.00;;;17.40;99.90;;;;;;5114578;28;20262;-42
2022/09/07 06:43:18;;;;;;;7.03;2.13;;;17.40;99.90;;;;;;5113032;28;20227;-41
2022/09/07 06:45:51;;;;;;;6.97;1.90;;;17.40;99.90;;;;;;5114770;28;20190;-42
2022/09/07 06:48:16;;;;;;;3.43;1.90;;;17.40;99.90;;;;;;5114549;28;20188;-43
2022/09/07 06:50:42;;;;;;;6.13;1.93;;;17.40;99.90;;;;;;5114639;28;20265;-45
2022/09/07 06:53:07;;;;;;;3.53;1.93;;;17.50;99.90;;;;;;5114430;28;20178;-41
2022/09/07 06:55:33;;;;;;;4.87;2.00;;;17.50;99.90;;;;;;5113944;28;20600;-42
2022/09/07 06:57:59;;;;;;;2.23;1.43;;;17.50;99.90;;;;;;5114317;28;20561;-42
2022/09/07 07:00:24;;;;;;;4.03;1.30;;;17.50;99.90;;;;;;5114391;28;20662;-42
2022/09/07 07:02:50;;;;;;;4.83;1.47;;;17.50;99.90;;;;;;5114100;28;20170;-41
2022/09/07 07:05:16;;;;;;;2.80;1.80;;;17.50;99.90;;;;;;5113869;28;20259;-41
2022/09/07 07:07:41;;;;;;;3.03;2.07;;;17.50;99.90;;;;;;5114373;28;20197;-42
2022/09/07 07:10:07;;;;;;;4.60;1.67;;;17.50;99.90;;;;;;5113759;28;20178;-42
2022/09/07 07:12:33;;;;;;;4.63;1.73;;;17.60;99.90;;;;;;5114024;28;20174;-42
2022/09/07 07:14:59;;;;;;;4.60;1.57;;;17.50;99.90;;;;;;5113759;28;20687;-43
2022/09/07 07:17:24;;;;;;;5.67;2.00;;;17.50;99.90;;;;;;5113674;28;20650;-42
2022/09/07 07:19:50;;;;;;;2.93;1.63;;;17.50;99.90;;;;;;5113729;28;20166;-41
2022/09/07 07:22:16;;;;;;;4.37;1.87;;;17.50;99.90;;;;;;5113577;28;20170;-42
2022/09/07 07:24:41;;;;;;;3.37;1.57;;;17.50;99.90;;;;;;5113351;28;20233;-42
2022/09/07 07:27:07;;;;;;;3.13;1.90;;;17.40;99.90;;;;;;5113594;28;20674;-42
2022/09/07 07:29:33;;;;;;;3.90;1.93;;;17.40;99.90;;;;;;5112240;28;20185;-44
2022/09/07 07:31:59;;;;;;;1.97;1.63;;;17.50;99.90;;;;;;5112395;28;20181;-43
2022/09/07 07:34:25;;;;;;;5.00;2.00;;;17.40;99.90;;;;;;5113633;28;20221;-44
2022/09/07 07:36:50;;;;;;;5.00;2.00;;;17.50;99.90;;;;;;5115833;28;20264;-42
2022/09/07 07:39:16;;;;;;;4.70;2.03;;;17.50;99.90;;;;;;5117883;28;20171;-44
2022/09/07 07:41:42;;;;;;;3.87;1.90;;;17.50;99.90;;;;;;5117803;27;20178;-41
2022/09/07 07:44:09;;;;;;;2.83;1.87;;;17.60;99.90;;;;;;5117515;28;20217;-41
2022/09/07 07:46:35;;;;;;;2.67;1.97;;;17.60;99.90;;;;;;5116380;28;20670;-41
2022/09/07 07:49:00;;;;;;;2.73;1.63;;;17.60;99.90;;;;;;5117682;28;20502;-44
2022/09/07 07:51:26;;;;;;;4.57;1.90;;;17.70;99.90;;;;;;5116393;28;20174;-42
2022/09/07 07:53:52;;;;;;;3.53;1.70;;;17.80;99.90;;;;;;5117831;28;20186;-42
2022/09/07 07:56:17;;;;;;;4.30;1.80;;;17.80;99.90;;;;;;5117350;28;20201;-42
2022/09/07 07:58:45;;;;;;;2.83;2.10;;;17.90;99.90;;;;;;5117529;28;20174;-42
2022/09/07 08:01:13;;;;;;;3.33;1.90;;;17.90;99.90;;;;;;5117582;28;20216;-41
2022/09/07 08:03:40;;;;;;;3.10;1.90;;;18.00;99.90;;;;;;5117417;28;20261;-43
2022/09/07 08:06:09;;;;;;;3.00;1.80;;;18.10;99.90;;;;;;5117175;28;20198;-42
2022/09/07 08:08:36;;;;;;;8.13;2.30;;;18.10;99.90;;;;;;5117307;28;20257;-43
2022/09/07 08:11:07;;;;;;;3.30;1.90;;;18.20;99.90;;;;;;5117044;28;20182;-42
2022/09/07 08:13:34;;;;;;;2.10;1.63;;;18.20;99.90;;;;;;5116054;28;20231;-42
2022/09/07 08:15:59;;;;;;;5.10;2.00;;;18.30;99.90;;;;;;5116870;28;20630;-41
2022/09/07 08:18:25;;;;;;;5.30;1.97;;;18.40;99.90;;;;;;5116941;28;20174;-42
2022/09/07 08:20:51;;;;;;;3.80;1.80;;;18.50;99.90;;;;;;5116936;28;20592;-42
2022/09/07 08:23:19;;;;;;;2.00;1.80;;;18.60;99.90;;;;;;5116914;28;20190;-43
2022/09/07 08:25:49;;;;;;;2.47;1.60;;;18.80;99.90;;;;;;5116686;28;20210;-43
2022/09/07 08:28:15;;;;;;;2.53;1.80;;;18.90;99.90;;;;;;5116962;28;20183;-41
2022/09/07 08:30:40;;;;;;;1.60;1.50;;;19.10;99.90;;;;;;5115483;28;20339;-42
2022/09/07 08:33:06;;;;;;;3.00;2.00;;;19.20;99.90;;;;;;5116840;28;20190;-43
2022/09/07 08:35:32;;;;;;;1.90;1.70;;;19.30;99.90;;;;;;5116811;28;20206;-41
2022/09/07 08:37:57;;;;;;;2.83;1.83;;;19.50;99.90;;;;;;5116883;28;20181;-42
2022/09/07 08:40:25;;;;;;;2.10;1.77;;;19.70;99.90;;;;;;5116660;28;20255;-42
2022/09/07 08:43:18;;;;;;;1.73;1.60;;;19.90;99.90;;;;;;5115588;28;20166;-42
2022/09/07 08:45:49;;;;;;;4.30;2.07;;;20.00;99.90;;;;;;5115312;28;20198;-43
2022/09/07 08:48:21;;;;;;;2.30;1.97;;;20.20;99.90;;;;;;5116393;28;20170;-42
2022/09/07 08:50:58;;;;;;;3.03;1.87;;;20.20;99.90;;;;;;5116404;28;20205;-42
2022/09/07 08:53:25;;;;;;;3.80;2.07;;;20.40;99.90;;;;;;5116547;28;20523;-42
2022/09/07 08:56:01;;;;;;;8.70;2.23;;;20.50;99.90;;;;;;5116018;28;20217;-42
2022/09/07 08:58:30;;;;;;;2.80;2.23;;;20.60;99.90;;;;;;5115421;28;20158;-42
2022/09/07 09:00:55;;;;;;;3.43;1.97;;;20.70;99.90;;;;;;5116420;28;20182;-42
2022/09/07 09:03:29;;;;;;;3.73;2.00;;;20.70;99.90;;;;;;5116358;28;20182;-43
2022/09/07 09:06:06;;;;;;;3.67;2.03;;;20.80;99.90;;;;;;5116251;28;20201;-43
2022/09/07 09:08:57;;;;;;;1.80;1.67;;;20.90;99.90;;;;;;5115429;28;20240;-42
2022/09/07 09:11:55;;;;;;;5.00;2.20;;;21.00;99.90;;;;;;5116114;28;20253;-43
2022/09/07 09:14:46;;;;;;;2.67;1.93;;;21.10;99.90;;;;;;5115949;28;20194;-41
2022/09/07 09:17:26;;;;;;;5.13;1.80;;;21.20;99.90;;;;;;5115602;28;20166;-41
2022/09/07 09:19:52;;;;;;;3.90;2.20;;;21.30;99.90;;;;;;5116908;28;20162;-44
2022/09/07 09:22:20;;;;;;;5.00;2.50;;;21.50;99.90;;;;;;5116848;28;20573;-45
2022/09/07 09:24:58;;;;;;;4.63;2.60;;;21.60;99.90;;;;;;5115990;28;20214;-44
2022/09/07 09:27:23;;;;;;;4.10;1.90;;;21.80;99.90;;;;;;5116562;28;20174;-44
2022/09/07 09:29:49;;;;;;;2.97;1.70;;;22.00;99.90;;;;;;5115812;28;20526;-46
2022/09/07 09:32:51;;;;;;;3.83;1.70;;;22.10;99.90;;;;;;5116220;28;20182;-44
2022/09/07 09:35:27;;;;;;;2.63;1.87;;;22.10;99.90;;;;;;5076309;28;20214;-44
2022/09/07 09:37:53;;;;;;;2.37;2.17;;;22.00;99.90;;;;;;5112930;27;20570;-43
2022/09/07 09:40:25;;;;;;;3.60;2.40;;;22.10;99.90;;;;;;5115965;28;20170;-43
2022/09/07 09:43:17;;;;;;;4.20;2.13;;;22.20;99.90;;;;;;5115865;28;20659;-43
2022/09/07 09:45:52;;;;;;;2.63;2.20;;;22.20;99.90;;;;;;5115573;28;20675;-44
2022/09/07 09:48:33;;;;;;;2.73;1.93;;;22.30;99.90;;;;;;5115585;28;20206;-45
2022/09/07 09:51:00;;;;;;;5.83;2.50;;;22.50;99.90;;;;;;5114071;28;20647;-45
2022/09/07 09:53:31;;;;;;;3.60;2.23;;;22.60;99.90;;;;;;5115791;28;20185;-44
2022/09/07 09:55:59;;;;;;;4.80;2.30;;;22.60;99.90;;;;;;5115743;28;20711;-43
2022/09/07 09:58:32;;;;;;;8.43;2.33;;;22.70;99.90;;;;;;5115057;28;20174;-44
2022/09/07 10:01:00;;;;;;;3.63;2.60;;;22.80;99.90;;;;;;5115790;28;20174;-44
2022/09/07 10:03:28;;;;;;;4.00;2.77;;;22.80;99.90;;;;;;5115510;28;20185;-44
2022/09/07 10:05:53;;;;;;;4.27;2.60;;;22.90;99.90;;;;;;5115464;28;20297;-45
2022/09/07 10:08:30;;;;;;;5.83;2.93;;;23.00;99.90;;;;;;5115518;28;20209;-43
2022/09/07 10:11:11;;;;;;;5.73;2.80;;;23.10;99.90;;;;;;5115207;28;20536;-45
2022/09/07 10:13:53;;;;;;;4.87;2.90;;;23.30;99.90;;;;;;5115418;28;20278;-44
2022/09/07 10:16:19;;;;;;;3.80;3.07;;;23.40;99.90;;;;;;5115195;28;20198;-44
2022/09/07 10:18:58;;;;;;;5.63;2.87;;;23.30;99.90;;;;;;5115472;28;20186;-43
2022/09/07 10:21:30;;;;;;;6.40;2.63;;;23.30;99.90;;;;;;5114508;28;20172;-46
2022/09/07 10:24:12;;;;;;;6.00;2.83;;;23.40;99.90;;;;;;5114883;28;20166;-47
2022/09/07 10:26:40;;;;;;;5.67;3.10;;;23.50;99.90;;;;;;5115410;28;20170;-44
2022/09/07 10:29:24;;;;;;;3.23;2.40;;;23.60;99.90;;;;;;5115245;28;20166;-44
2022/09/07 10:32:00;;;;;;;5.30;2.80;;;23.60;99.90;;;;;;5115118;28;20241;-44
2022/09/07 10:34:35;;;;;;;6.63;2.97;;;23.70;99.90;;;;;;5115210;28;20225;-44
2022/09/07 10:37:07;;;;;;;4.03;2.53;;;23.80;99.90;;;;;;5115155;28;20162;-44
2022/09/07 10:39:42;;;;;;;4.13;2.73;;;24.00;99.90;;;;;;5115133;28;20196;-44
2022/09/07 10:42:08;;;;;;;6.30;2.87;;;24.20;99.90;;;;;;5113750;28;20178;-45
2022/09/07 10:44:45;;;;;;;9.37;2.83;;;24.40;99.90;;;;;;5115130;28;20237;-45
2022/09/07 10:47:26;;;;;;;3.57;2.43;;;24.50;99.90;;;;;;5116366;28;20175;-43
2022/09/07 10:49:59;;;;;;;6.00;2.70;;;24.60;99.90;;;;;;5116387;28;20166;-44
2022/09/07 10:52:51;;;;;;;4.43;2.00;;;24.70;99.90;;;;;;5117129;28;20217;-45
2022/09/07 10:55:31;;;;;;;3.50;2.30;;;24.80;99.90;;;;;;5115877;28;20202;-39
2022/09/07 10:58:10;;;;;;;4.13;2.30;;;25.00;99.90;;;;;;5114072;28;20245;-40
2022/09/07 11:01:17;;;;;;;4.37;2.43;;;25.00;99.90;;;;;;5114441;28;20158;-41
2022/09/07 11:04:20;;;;;;;6.67;2.10;;;24.90;99.90;;;;;;5101451;28;20277;-40
2022/09/07 11:06:58;;;;;;;3.00;1.90;;;24.90;99.90;;;;;;5114022;28;20260;-42
2022/09/07 11:09:48;;;;;;;3.17;1.80;;;24.90;99.90;;;;;;5113936;28;20173;-40
2022/09/07 11:12:23;;;;;;;2.40;1.70;;;24.80;99.90;;;;;;5114115;28;20162;-38
2022/09/07 11:15:11;;;;;;;5.23;1.50;;;24.80;99.90;;;;;;5113872;28;20576;-41
2022/09/07 11:17:47;;;;;;;3.77;1.70;;;24.70;99.90;;;;;;5113651;28;20257;-41
2022/09/07 11:20:20;;;;;;;2.67;1.37;;;24.70;99.90;;;;;;5113922;28;20219;-41
2022/09/07 11:23:03;;;;;;;2.10;1.30;;;24.80;99.90;;;;;;5113771;28;20166;-40
2022/09/07 11:25:32;;;;;;;4.00;1.23;;;24.80;99.90;;;;;;5113273;28;20309;-43
2022/09/07 11:28:01;;;;;;;2.80;1.50;;;24.90;99.90;;;;;;5113493;28;20643;-39
2022/09/07 11:30:32;;;;;;;3.37;1.30;;;25.00;99.90;;;;;;5113619;28;20198;-41
2022/09/07 11:33:11;;;;;;;5.00;1.60;;;25.00;99.90;;;;;;5112011;28;20166;-42
2022/09/07 11:36:08;;;;;;;3.43;1.00;;;25.10;99.90;;;;;;5113369;28;20243;-40
2022/09/07 11:38:40;;;;;;;1.80;1.03;;;25.10;99.90;;;;;;5111662;28;20589;-41
2022/09/07 11:41:35;;;;;;;3.63;1.13;;;25.20;99.90;;;;;;5113464;28;20178;-40
2022/09/07 11:44:17;;;;;;;1.47;1.00;;;25.20;99.90;;;;;;5113387;28;20163;-41
2022/09/07 11:46:53;;;;;;;1.97;0.90;;;25.20;99.90;;;;;;5113435;28;20516;-39
2022/09/07 11:49:24;;;;;;;5.13;0.90;;;25.30;99.90;;;;;;5113111;28;20239;-43
2022/09/07 11:52:14;;;;;;;2.73;1.20;;;25.30;99.90;;;;;;5113065;28;20615;-39
2022/09/07 11:54:43;;;;;;;3.40;0.90;;;25.50;99.90;;;;;;5112961;28;20225;-40
2022/09/07 11:57:32;;;;;;;3.77;1.40;;;25.70;99.90;;;;;;5113315;28;20171;-40
2022/09/07 12:00:20;;;;;;;4.07;1.00;;;25.80;99.90;;;;;;5113353;28;20154;-39
2022/09/07 12:03:12;;;;;;;4.50;1.20;;;25.90;99.90;;;;;;5113164;28;20522;-42
2022/09/07 12:05:56;;;;;;;2.13;1.13;;;25.90;99.90;;;;;;5112991;28;20205;-40
2022/09/07 12:08:41;;;;;;;1.47;1.00;;;26.00;99.90;;;;;;5113237;28;20194;-42
2022/09/07 12:11:35;;;;;;;4.77;1.37;;;26.00;99.90;;;;;;5113184;28;20159;-42
2022/09/07 12:14:25;;;;;;;4.07;1.17;;;26.00;99.90;;;;;;5113169;28;20170;-40
2022/09/07 12:17:17;;;;;;;3.53;1.10;;;26.10;99.90;;;;;;5113379;28;20208;-42
2022/09/07 12:19:43;;;;;;;2.20;0.93;;;26.30;99.90;;;;;;5104545;28;20655;-40
2022/09/07 12:22:20;;;;;;;3.37;1.20;;;26.40;99.90;;;;;;5113953;28;20182;-43
2022/09/07 12:24:50;;;;;;;3.63;1.30;;;26.50;99.90;;;;;;5116354;28;20213;-44
2022/09/07 12:27:18;;;;;;;2.83;0.97;;;26.50;99.90;;;;;;5116708;28;20161;-42
2022/09/07 12:29:49;;;;;;;3.67;1.00;;;26.60;99.90;;;;;;5116617;27;20202;-43
2022/09/07 12:32:45;;;;;;;3.83;1.10;;;26.60;99.90;;;;;;5116417;28;20166;-44
2022/09/07 12:35:29;;;;;;;4.40;1.23;;;26.60;99.90;;;;;;5116389;28;20206;-41
2022/09/07 12:37:57;;;;;;;5.20;1.10;;;26.60;99.90;;;;;;5116519;28;20666;-42
2022/09/07 12:43:12;;;;;;;3.42;1.10;;;26.50;99.90;;;;;;5115990;28;20539;-41
2022/09/07 12:45:38;;;;;;;3.88;1.10;;;26.60;99.90;;;;;;5116219;28;20202;-42
2022/09/07 12:48:15;;;;;;;2.83;1.05;;;26.80;99.90;;;;;;5116048;28;20249;-41
2022/09/07 12:50:47;;;;;;;5.28;1.20;;;27.00;99.90;;;;;;5114686;28;20177;-42
2022/09/07 12:53:12;;;;;;;2.75;1.30;;;27.10;99.90;;;;;;5114722;28;20163;-42
2022/09/07 12:55:51;;;;;;;6.55;1.83;;;27.00;99.90;;;;;;5114817;28;20209;-44
2022/09/07 12:58:33;;;;;;;4.40;1.23;;;26.70;99.90;;;;;;5116227;27;20562;-41
2022/09/07 13:01:05;;;;;;;2.13;1.13;;;26.50;99.90;;;;;;5115948;28;20169;-38
2022/09/07 13:04:08;;;;;;;3.30;1.10;;;26.60;99.90;;;;;;5116320;28;20642;-42
2022/09/07 13:07:18;;;;;;;2.28;1.02;;;26.60;99.90;;;;;;5115700;27;20189;-39
2022/09/07 13:09:58;;;;;;;2.93;1.00;;;26.60;99.90;;;;;;5107130;28;20634;-41
2022/09/07 13:12:46;;;;;;;3.55;1.23;;;26.50;99.90;;;;;;5115647;28;20166;-40
2022/09/07 13:15:33;;;;;;;3.60;1.10;;;26.60;99.90;;;;;;5115605;28;20251;-41